createdAt,value
2022-08-19T00:01:53.265Z,22.14
2022-08-19T00:04:23.643Z,22.11
2022-08-19T00:06:51.036Z,22.13
2022-08-19T00:09:20.294Z,22.09
2022-08-19T00:11:47.982Z,22.08
2022-08-19T00:14:17.013Z,22.04
2022-08-19T00:16:46.743Z,21.99
2022-08-19T00:19:14.530Z,21.98
2022-08-19T00:21:41.823Z,21.91
2022-08-19T00:24:11.611Z,21.93
2022-08-19T00:26:39.008Z,21.94
2022-08-19T00:29:07.869Z,21.93
2022-08-19T00:31:35.155Z,21.91
2022-08-19T00:34:02.532Z,21.87
2022-08-19T00:36:30.087Z,21.89
2022-08-19T00:38:57.359Z,21.90
2022-08-19T00:41:27.540Z,21.90
2022-08-19T00:44:13.751Z,21.88
2022-08-19T00:46:44.985Z,21.85
2022-08-19T00:49:26.008Z,21.85
2022-08-19T00:51:57.809Z,21.81
2022-08-19T00:54:29.139Z,21.78
2022-08-19T00:57:05.377Z,21.75
2022-08-19T00:59:56.502Z,21.72
2022-08-19T01:02:19.859Z,21.69
2022-08-19T01:04:55.623Z,21.64
2022-08-19T01:07:23.002Z,21.59
2022-08-19T01:09:50.967Z,21.54
2022-08-19T01:12:19.251Z,21.48
2022-08-19T01:14:48.814Z,21.43
2022-08-19T01:17:16.980Z,21.40
2022-08-19T01:19:48.266Z,21.36
2022-08-19T01:22:30.142Z,21.32
2022-08-19T01:25:03.557Z,21.29
2022-08-19T01:27:44.901Z,21.26
2022-08-19T01:30:18.993Z,21.21
2022-08-19T01:32:46.165Z,21.15
2022-08-19T01:35:14.025Z,21.15
2022-08-19T01:37:50.772Z,21.09
2022-08-19T01:40:21.195Z,21.08
2022-08-19T01:42:50.190Z,21.03
2022-08-19T01:45:18.389Z,21.04
2022-08-19T01:47:52.774Z,21.01
2022-08-19T01:50:29.181Z,21.01
2022-08-19T01:53:02.376Z,21.01
2022-08-19T01:55:40.979Z,20.96
2022-08-19T01:58:16.034Z,20.93
2022-08-19T02:00:43.790Z,20.91
2022-08-19T02:03:12.521Z,20.88
2022-08-19T02:05:42.999Z,20.93
2022-08-19T02:08:11.699Z,20.92
2022-08-19T02:10:42.006Z,20.90
2022-08-19T02:13:09.397Z,20.91
2022-08-19T02:15:56.417Z,20.90
2022-08-19T02:18:28.093Z,20.87
2022-08-19T02:20:56.344Z,20.84
2022-08-19T02:23:23.425Z,20.79
2022-08-19T02:25:52.237Z,20.76
2022-08-19T02:28:19.315Z,20.66
2022-08-19T02:30:46.812Z,20.67
2022-08-19T02:33:13.906Z,20.65
2022-08-19T02:35:45.416Z,20.68
2022-08-19T02:38:27.537Z,20.69
2022-08-19T02:40:57.686Z,20.68
2022-08-19T02:43:25.708Z,20.69
2022-08-19T02:45:53.147Z,20.68
2022-08-19T02:48:22.300Z,20.66
2022-08-19T02:50:56.380Z,20.64
2022-08-19T02:53:26.916Z,20.62
2022-08-19T02:55:54.365Z,20.64
2022-08-19T02:58:22.860Z,20.64
2022-08-19T03:00:53.824Z,20.63
2022-08-19T03:03:21.180Z,20.63
2022-08-19T03:05:56.912Z,20.64
2022-08-19T03:08:26.912Z,20.64
2022-08-19T03:10:54.956Z,20.63
2022-08-19T03:13:22.538Z,20.63
2022-08-19T03:15:49.718Z,20.61
2022-08-19T03:18:17.937Z,20.66
2022-08-19T03:20:48.233Z,20.72
2022-08-19T03:23:16.589Z,20.75
2022-08-19T03:25:47.678Z,20.81
2022-08-19T03:28:29.882Z,20.86
2022-08-19T03:31:41.843Z,20.87
2022-08-19T03:33:56.916Z,20.94
2022-08-19T03:36:27.100Z,20.95
2022-08-19T03:38:59.607Z,20.93
2022-08-19T03:41:45.319Z,20.93
2022-08-19T03:44:17.001Z,20.93
2022-08-19T03:46:47.621Z,20.99
2022-08-19T03:49:14.952Z,21.06
2022-08-19T03:51:43.455Z,21.08
2022-08-19T03:54:14.324Z,21.13
2022-08-19T03:56:44.294Z,21.15
2022-08-19T03:59:16.649Z,21.10
2022-08-19T04:01:44.141Z,21.22
2022-08-19T04:04:11.336Z,21.31
2022-08-19T04:06:40.088Z,21.37
2022-08-19T04:09:12.352Z,21.40
2022-08-19T04:11:46.030Z,21.47
2022-08-19T04:14:17.822Z,21.57
2022-08-19T04:16:45.944Z,21.68
2022-08-19T04:19:14.173Z,21.85
2022-08-19T04:21:43.617Z,21.96
2022-08-19T04:24:11.615Z,22.03
2022-08-19T04:26:40.190Z,22.08
2022-08-19T04:29:17.022Z,22.24
2022-08-19T04:31:46.231Z,22.38
2022-08-19T04:34:16.188Z,22.65
2022-08-19T04:36:45.991Z,22.88
2022-08-19T04:39:16.949Z,23.21
2022-08-19T04:42:03.854Z,23.56
2022-08-19T04:44:35.290Z,24.28
2022-08-19T04:47:11.273Z,24.63
2022-08-19T04:49:38.706Z,24.42
2022-08-19T04:52:05.885Z,24.87
2022-08-19T04:54:38.316Z,25.66
2022-08-19T04:57:11.139Z,26.24
2022-08-19T04:59:39.967Z,26.33
2022-08-19T05:02:09.695Z,26.11
2022-08-19T05:04:40.346Z,26.11
2022-08-19T05:07:09.226Z,26.30
2022-08-19T05:09:57.798Z,26.16
2022-08-19T05:12:28.733Z,26.19
2022-08-19T05:14:58.340Z,26.18
2022-08-19T05:17:29.035Z,26.18
2022-08-19T05:20:16.879Z,26.28
2022-08-19T05:22:46.313Z,26.21
2022-08-19T05:25:16.689Z,26.15
2022-08-19T05:27:43.736Z,26.08
2022-08-19T05:30:12.392Z,26.05
2022-08-19T05:32:40.904Z,26.03
2022-08-19T05:35:08.460Z,25.73
2022-08-19T05:37:35.532Z,25.73
2022-08-19T05:40:10.668Z,25.57
2022-08-19T05:42:38.608Z,25.49
2022-08-19T05:45:06.147Z,25.48
2022-08-19T05:47:33.284Z,25.40
2022-08-19T05:50:00.472Z,25.30
2022-08-19T05:52:29.188Z,25.58
2022-08-19T05:54:57.503Z,25.81
2022-08-19T05:57:31.649Z,26.07
2022-08-19T06:00:01.286Z,26.30
2022-08-19T06:02:32.015Z,26.44
2022-08-19T06:04:59.449Z,26.73
2022-08-19T06:07:26.636Z,26.82
2022-08-19T06:10:00.252Z,26.66
2022-08-19T06:12:35.672Z,26.93
2022-08-19T06:15:09.800Z,27.33
2022-08-19T06:17:37.260Z,27.59
2022-08-19T06:20:13.055Z,27.29
2022-08-19T06:22:45.583Z,27.09
2022-08-19T06:25:14.925Z,27.26
2022-08-19T06:27:58.956Z,27.49
2022-08-19T06:30:29.784Z,27.71
2022-08-19T06:32:56.931Z,27.42
2022-08-19T06:35:24.076Z,27.00
2022-08-19T06:37:51.078Z,26.56
2022-08-19T06:40:18.255Z,26.35
2022-08-19T06:42:54.153Z,26.29
2022-08-19T06:45:34.577Z,26.11
2022-08-19T06:48:03.487Z,25.97
2022-08-19T06:50:30.637Z,25.88
2022-08-19T06:52:57.650Z,25.65
2022-08-19T06:55:30.378Z,25.57
2022-08-19T06:58:04.878Z,25.45
2022-08-19T07:03:07.789Z,25.49
2022-08-19T07:05:45.773Z,25.63
2022-08-19T07:08:14.690Z,25.79
2022-08-19T07:10:49.301Z,26.02
2022-08-19T07:13:16.434Z,26.31
2022-08-19T07:15:43.576Z,26.48
2022-08-19T07:18:11.863Z,26.70
2022-08-19T07:20:40.449Z,27.11
2022-08-19T07:23:09.918Z,27.88
2022-08-19T07:25:53.157Z,28.59
2022-08-19T07:28:24.464Z,29.29
2022-08-19T07:30:53.080Z,29.93
2022-08-19T07:33:23.086Z,30.06
2022-08-19T07:35:50.942Z,30.46
2022-08-19T07:38:18.251Z,30.59
2022-08-19T07:40:47.285Z,30.15
2022-08-19T07:43:17.080Z,29.31
2022-08-19T07:45:48.256Z,28.98
2022-08-19T07:48:17.520Z,28.96
2022-08-19T07:51:11.335Z,29.15
2022-08-19T07:53:45.963Z,29.73
2022-08-19T07:56:15.136Z,30.56
2022-08-19T07:58:44.993Z,30.95
2022-08-19T08:01:21.886Z,31.19
2022-08-19T08:04:08.535Z,31.07
2022-08-19T08:06:54.245Z,31.03
2022-08-19T08:09:39.378Z,30.96
2022-08-19T08:12:33.002Z,31.39
2022-08-19T08:15:02.994Z,31.62
2022-08-19T08:17:48.664Z,31.49
2022-08-19T08:20:18.106Z,32.20
2022-08-19T08:23:07.638Z,32.22
2022-08-19T08:25:36.529Z,32.38
2022-08-19T08:28:04.789Z,32.45
2022-08-19T08:30:33.961Z,31.41
2022-08-19T08:33:02.742Z,30.75
2022-08-19T08:35:30.032Z,30.37
2022-08-19T08:37:58.613Z,29.95
2022-08-19T08:40:31.485Z,29.65
2022-08-19T08:43:26.724Z,29.22
2022-08-19T08:46:01.619Z,29.01
2022-08-19T08:48:54.590Z,29.18
2022-08-19T08:51:29.912Z,29.33
2022-08-19T08:54:10.752Z,29.33
2022-08-19T08:56:45.372Z,29.64
2022-08-19T08:59:22.924Z,30.29
2022-08-19T09:01:50.879Z,30.24
2022-08-19T09:04:21.140Z,30.28
2022-08-19T09:06:55.983Z,29.90
2022-08-19T09:09:35.919Z,29.78
2022-08-19T09:12:16.447Z,30.45
2022-08-19T09:14:55.134Z,31.08
2022-08-19T09:17:28.585Z,30.80
2022-08-19T09:20:18.111Z,31.10
2022-08-19T09:22:45.457Z,31.08
2022-08-19T09:25:16.643Z,31.00
2022-08-19T09:27:44.217Z,31.01
2022-08-19T09:30:22.098Z,31.28
2022-08-19T09:32:53.916Z,31.62
2022-08-19T09:35:25.371Z,31.84
2022-08-19T09:37:59.668Z,31.38
2022-08-19T09:40:30.330Z,30.65
2022-08-19T09:43:01.668Z,30.49
2022-08-19T09:45:29.089Z,30.66
2022-08-19T09:47:57.777Z,30.30
2022-08-19T09:50:25.473Z,30.26
2022-08-19T09:52:55.766Z,30.36
2022-08-19T09:55:31.208Z,30.21
2022-08-19T09:58:03.307Z,29.63
2022-08-19T10:00:32.026Z,29.37
2022-08-19T10:02:59.494Z,29.14
2022-08-19T10:05:45.281Z,29.02
2022-08-19T10:08:28.883Z,28.83
2022-08-19T10:10:57.316Z,28.72
2022-08-19T10:13:28.776Z,28.69
2022-08-19T10:15:58.695Z,28.45
2022-08-19T10:18:26.552Z,28.57
2022-08-19T10:20:54.729Z,28.59
2022-08-19T10:23:22.659Z,28.53
2022-08-19T10:25:50.883Z,28.47
2022-08-19T10:28:19.461Z,28.61
2022-08-19T10:30:56.463Z,28.36
2022-08-19T10:33:52.948Z,28.34
2022-08-19T10:36:16.225Z,28.29
2022-08-19T10:38:52.284Z,28.39
2022-08-19T10:41:25.286Z,28.46
2022-08-19T10:43:55.425Z,28.36
2022-08-19T10:46:26.902Z,28.30
2022-08-19T10:48:55.546Z,28.25
2022-08-19T10:51:48.082Z,28.25
2022-08-19T10:54:16.537Z,28.10
2022-08-19T10:56:52.683Z,27.86
2022-08-19T10:59:35.759Z,27.98
2022-08-19T11:02:05.444Z,27.74
2022-08-19T11:04:33.635Z,27.58
2022-08-19T11:07:00.724Z,27.52
2022-08-19T11:09:34.336Z,27.55
2022-08-19T11:12:03.053Z,27.37
2022-08-19T11:14:34.493Z,27.49
2022-08-19T11:17:02.351Z,27.58
2022-08-19T11:19:29.441Z,27.73
2022-08-19T11:21:56.582Z,27.68
2022-08-19T11:24:26.940Z,27.70
2022-08-19T11:27:01.171Z,27.57
2022-08-19T11:29:28.970Z,27.57
2022-08-19T11:31:56.289Z,27.34
2022-08-19T11:34:28.581Z,27.14
2022-08-19T11:36:59.801Z,26.98
2022-08-19T11:39:29.143Z,26.90
2022-08-19T11:41:56.470Z,26.84
2022-08-19T11:44:23.544Z,26.90
2022-08-19T11:46:50.662Z,26.84
2022-08-19T11:49:22.674Z,26.74
2022-08-19T11:51:51.750Z,26.78
2022-08-19T11:54:21.044Z,26.71
2022-08-19T11:56:50.162Z,26.60
2022-08-19T11:59:17.376Z,26.38
2022-08-19T12:01:44.640Z,26.23
2022-08-19T12:04:12.293Z,26.14
2022-08-19T12:06:40.929Z,26.17
2022-08-19T12:09:10.526Z,26.17
2022-08-19T12:11:39.341Z,26.20
2022-08-19T12:14:07.995Z,26.16
2022-08-19T12:16:37.746Z,26.21
2022-08-19T12:19:06.903Z,26.16
2022-08-19T12:21:36.009Z,26.12
2022-08-19T12:24:04.710Z,26.23
2022-08-19T12:26:32.555Z,26.21
2022-08-19T12:29:00.665Z,26.28
2022-08-19T12:31:29.460Z,26.31
2022-08-19T12:33:56.833Z,26.32
2022-08-19T12:36:26.644Z,26.33
2022-08-19T12:38:53.981Z,26.31
2022-08-19T12:41:23.270Z,26.26
2022-08-19T12:43:53.541Z,26.25
2022-08-19T12:46:23.032Z,26.25
2022-08-19T12:48:56.214Z,26.17
2022-08-19T12:51:26.397Z,26.27
2022-08-19T12:53:53.539Z,26.28
2022-08-19T12:56:23.545Z,26.27
2022-08-19T12:58:53.306Z,26.08
2022-08-19T13:01:22.807Z,26.06
2022-08-19T13:03:51.396Z,25.96
2022-08-19T13:06:20.333Z,25.98
2022-08-19T13:08:47.759Z,26.02
2022-08-19T13:11:20.199Z,26.04
2022-08-19T13:13:50.746Z,26.05
2022-08-19T13:16:18.830Z,26.08
2022-08-19T13:18:53.024Z,25.98
2022-08-19T13:21:24.016Z,25.95
2022-08-19T13:23:52.109Z,26.04
2022-08-19T13:26:19.792Z,26.07
2022-08-19T13:29:05.573Z,26.25
2022-08-19T13:31:54.105Z,26.27
2022-08-19T13:34:31.219Z,26.15
2022-08-19T13:36:59.144Z,26.09
2022-08-19T13:39:26.414Z,26.15
2022-08-19T13:41:53.798Z,26.11
2022-08-19T13:44:21.211Z,26.09
2022-08-19T13:46:50.096Z,26.10
2022-08-19T13:49:21.712Z,26.00
2022-08-19T13:51:48.938Z,26.03
2022-08-19T13:54:23.344Z,25.96
2022-08-19T13:56:50.381Z,25.91
2022-08-19T13:59:18.191Z,25.88
2022-08-19T14:01:47.568Z,25.82
2022-08-19T14:04:14.552Z,25.84
2022-08-19T14:06:41.629Z,25.73
2022-08-19T14:09:08.844Z,25.69
2022-08-19T14:11:35.803Z,25.63
2022-08-19T14:14:02.774Z,25.59
2022-08-19T14:16:31.488Z,25.53
2022-08-19T14:19:00.776Z,25.51
2022-08-19T14:21:27.927Z,25.41
2022-08-19T14:23:57.469Z,25.38
2022-08-19T14:26:24.894Z,25.37
2022-08-19T14:28:55.543Z,25.38
2022-08-19T14:31:27.850Z,25.36
2022-08-19T14:33:58.394Z,25.33
2022-08-19T14:36:25.693Z,25.24
2022-08-19T14:38:52.896Z,25.07
2022-08-19T14:41:26.983Z,25.22
2022-08-19T14:43:55.132Z,25.10
2022-08-19T14:46:26.240Z,25.07
2022-08-19T14:48:57.599Z,25.06
2022-08-19T14:51:27.844Z,24.84
2022-08-19T14:53:56.441Z,24.85
2022-08-19T14:56:27.667Z,24.84
2022-08-19T14:58:55.649Z,24.80
2022-08-19T15:01:24.253Z,24.76
2022-08-19T15:03:54.073Z,24.69
2022-08-19T15:06:22.673Z,24.69
2022-08-19T15:08:52.882Z,24.67
2022-08-19T15:11:23.722Z,24.73
2022-08-19T15:13:51.443Z,24.74
2022-08-19T15:16:19.456Z,24.68
2022-08-19T15:18:50.775Z,24.66
2022-08-19T15:21:26.797Z,24.64
2022-08-19T15:23:56.560Z,24.62
2022-08-19T15:26:28.639Z,24.66
2022-08-19T15:28:58.187Z,24.54
2022-08-19T15:31:28.759Z,24.59
2022-08-19T15:33:58.931Z,24.58
2022-08-19T15:36:27.286Z,24.56
2022-08-19T15:38:57.213Z,24.57
2022-08-19T15:41:30.868Z,24.63
2022-08-19T15:44:10.290Z,24.63
2022-08-19T15:46:39.522Z,24.64
2022-08-19T15:49:07.896Z,24.62
2022-08-19T15:51:39.342Z,24.57
2022-08-19T15:54:09.560Z,24.57
2022-08-19T15:56:57.970Z,24.54
2022-08-19T15:59:47.381Z,24.54
2022-08-19T16:02:34.980Z,24.52
2022-08-19T16:05:26.582Z,24.48
2022-08-19T16:08:01.467Z,24.46
2022-08-19T16:10:31.165Z,24.42
2022-08-19T16:13:03.179Z,24.37
2022-08-19T16:15:46.259Z,24.32
2022-08-19T16:18:15.932Z,24.20
2022-08-19T16:20:44.587Z,24.10
2022-08-19T16:23:11.843Z,24.05
2022-08-19T16:25:39.624Z,24.03
2022-08-19T16:28:10.009Z,24.01
2022-08-19T16:30:48.501Z,24.01
2022-08-19T16:33:40.805Z,23.97
2022-08-19T16:36:26.649Z,23.93
2022-08-19T16:38:55.578Z,23.88
2022-08-19T16:41:28.276Z,23.80
2022-08-19T16:43:55.708Z,23.73
2022-08-19T16:46:26.846Z,23.72
2022-08-19T16:48:54.738Z,23.67
2022-08-19T16:51:23.020Z,23.65
2022-08-19T16:53:52.653Z,23.61
2022-08-19T16:56:21.360Z,23.53
2022-08-19T16:58:50.915Z,23.47
2022-08-19T17:01:19.513Z,23.39
2022-08-19T17:03:48.734Z,23.37
2022-08-19T17:06:20.891Z,23.34
2022-08-19T17:08:50.936Z,23.34
2022-08-19T17:11:19.857Z,23.36
2022-08-19T17:13:51.098Z,23.34
2022-08-19T17:16:22.266Z,23.31
2022-08-19T17:18:53.048Z,23.28
2022-08-19T17:21:22.666Z,23.22
2022-08-19T17:23:49.783Z,23.22
2022-08-19T17:26:18.612Z,23.19
2022-08-19T17:28:51.997Z,23.16
2022-08-19T17:31:21.639Z,23.11
2022-08-19T17:33:52.213Z,23.08
2022-08-19T17:36:27.290Z,23.06
2022-08-19T17:38:57.378Z,22.99
2022-08-19T17:41:25.677Z,22.94
2022-08-19T17:43:53.394Z,22.90
2022-08-19T17:46:20.740Z,22.89
2022-08-19T17:48:52.754Z,22.87
2022-08-19T17:51:42.385Z,22.84
2022-08-19T17:54:16.242Z,22.80
2022-08-19T17:56:48.012Z,22.79
2022-08-19T17:59:20.165Z,22.74
2022-08-19T18:01:58.117Z,22.67
2022-08-19T18:04:27.787Z,22.66
2022-08-19T18:06:56.089Z,22.59
2022-08-19T18:09:38.618Z,22.58
2022-08-19T18:12:23.507Z,22.54
2022-08-19T18:14:57.765Z,22.33
2022-08-19T18:17:28.332Z,22.46
2022-08-19T18:19:56.068Z,22.45
2022-08-19T18:22:23.043Z,22.45
2022-08-19T18:24:50.420Z,22.40
2022-08-19T18:27:17.544Z,22.39
2022-08-19T18:29:45.172Z,22.36
2022-08-19T18:32:13.054Z,22.32
2022-08-19T18:34:42.905Z,22.28
2022-08-19T18:37:10.843Z,22.27
2022-08-19T18:39:56.742Z,22.22
2022-08-19T18:42:46.230Z,22.19
2022-08-19T18:45:31.830Z,22.16
2022-08-19T18:48:26.652Z,22.12
2022-08-19T18:50:57.695Z,22.07
2022-08-19T18:53:26.281Z,22.04
2022-08-19T18:55:55.540Z,21.98
2022-08-19T18:58:34.474Z,21.97
2022-08-19T19:01:25.204Z,21.94
2022-08-19T19:03:54.323Z,21.92
2022-08-19T19:06:28.824Z,21.88
2022-08-19T19:08:56.988Z,21.85
2022-08-19T19:11:30.525Z,21.82
2022-08-19T19:13:57.725Z,21.81
2022-08-19T19:16:28.795Z,21.74
2022-08-19T19:18:59.656Z,21.75
2022-08-19T19:21:26.971Z,21.72
2022-08-19T19:23:55.648Z,21.71
2022-08-19T19:26:23.528Z,21.71
2022-08-19T19:28:51.573Z,21.66
2022-08-19T19:31:26.857Z,21.63
2022-08-19T19:33:55.869Z,21.60
2022-08-19T19:36:25.549Z,21.52
2022-08-19T19:38:53.165Z,21.52
2022-08-19T19:41:26.375Z,21.50
2022-08-19T19:44:29.355Z,21.47
2022-08-19T19:46:45.970Z,21.44
2022-08-19T19:49:14.106Z,21.42
2022-08-19T19:51:43.358Z,21.39
2022-08-19T19:54:15.698Z,21.35
2022-08-19T19:56:48.659Z,21.32
2022-08-19T19:59:16.280Z,21.29
2022-08-19T20:01:46.878Z,21.25
2022-08-19T20:04:15.460Z,21.25
2022-08-19T20:06:42.557Z,21.23
2022-08-19T20:09:10.861Z,21.19
2022-08-19T20:11:42.044Z,21.18
2022-08-19T20:14:12.716Z,21.15
2022-08-19T20:16:44.070Z,21.12
2022-08-19T20:19:13.493Z,21.10
2022-08-19T20:21:43.784Z,21.06
2022-08-19T20:24:14.053Z,21.02
2022-08-19T20:26:42.743Z,20.97
2022-08-19T20:29:38.340Z,20.96
2022-08-19T20:31:59.457Z,20.91
2022-08-19T20:34:27.539Z,20.89
2022-08-19T20:36:54.742Z,20.83
2022-08-19T20:39:21.823Z,20.81
2022-08-19T20:41:50.964Z,20.79
2022-08-19T20:44:18.063Z,20.75
2022-08-19T20:46:54.518Z,20.72
2022-08-19T20:49:27.470Z,20.68
2022-08-19T20:51:56.274Z,20.66
2022-08-19T20:54:26.224Z,20.67
2022-08-19T20:56:53.435Z,20.63
2022-08-19T20:59:21.819Z,20.57
2022-08-19T21:01:51.908Z,20.59
2022-08-19T21:04:21.382Z,20.58
2022-08-19T21:06:50.237Z,20.54
2022-08-19T21:09:17.433Z,20.52
2022-08-19T21:11:44.671Z,20.52
2022-08-19T21:14:12.959Z,20.53
2022-08-19T21:16:40.134Z,20.51
2022-08-19T21:19:07.503Z,20.50
2022-08-19T21:21:35.093Z,20.49
2022-08-19T21:24:02.210Z,20.46
2022-08-19T21:26:29.124Z,20.48
2022-08-19T21:28:56.354Z,20.47
2022-08-19T21:31:23.552Z,20.54
2022-08-19T21:33:50.520Z,20.58
2022-08-19T21:36:17.633Z,20.59
2022-08-19T21:38:44.658Z,20.62
2022-08-19T21:41:11.709Z,20.65
2022-08-19T21:43:39.231Z,20.64
2022-08-19T21:46:07.218Z,20.58
2022-08-19T21:48:34.225Z,20.61
2022-08-19T21:51:01.413Z,20.63
2022-08-19T21:53:31.470Z,20.64
2022-08-19T21:56:01.633Z,20.60
2022-08-19T21:58:36.617Z,20.51
2022-08-19T22:01:06.461Z,20.45
2022-08-19T22:03:38.555Z,20.35
2022-08-19T22:06:06.848Z,20.23
2022-08-19T22:08:34.006Z,20.17
2022-08-19T22:11:02.959Z,20.13
2022-08-19T22:13:39.786Z,20.05
2022-08-19T22:16:09.995Z,20.03
2022-08-19T22:18:37.407Z,19.98
2022-08-19T22:21:12.318Z,19.98
2022-08-19T22:23:44.479Z,19.98
2022-08-19T22:26:12.849Z,19.96
2022-08-19T22:28:49.708Z,19.97
2022-08-19T22:31:24.642Z,19.96
2022-08-19T22:33:52.875Z,19.90
2022-08-19T22:36:20.609Z,19.90
2022-08-19T22:38:50.555Z,19.79
2022-08-19T22:41:17.662Z,19.78
2022-08-19T22:43:46.738Z,19.80
2022-08-19T22:46:17.333Z,19.81
2022-08-19T22:48:45.674Z,19.65
2022-08-19T22:51:31.278Z,19.72
2022-08-19T22:53:58.511Z,19.70
2022-08-19T22:56:26.082Z,19.70
2022-08-19T22:58:53.703Z,19.70
2022-08-19T23:01:27.460Z,19.67
2022-08-19T23:03:59.282Z,19.61
2022-08-19T23:06:31.214Z,19.54
2022-08-19T23:09:01.851Z,19.49
2022-08-19T23:11:31.494Z,19.44
2022-08-19T23:13:58.634Z,19.37
2022-08-19T23:16:25.597Z,19.30
2022-08-19T23:18:55.956Z,19.27
2022-08-19T23:21:26.740Z,19.22
2022-08-19T23:23:54.279Z,19.22
2022-08-19T23:26:23.092Z,19.17
2022-08-19T23:29:08.573Z,19.12
2022-08-19T23:31:38.266Z,19.08
2022-08-19T23:34:05.991Z,19.01
2022-08-19T23:36:35.396Z,18.98
2022-08-19T23:39:02.517Z,18.97
2022-08-19T23:41:29.583Z,18.94
2022-08-19T23:43:56.689Z,18.87
2022-08-19T23:46:28.543Z,18.86
2022-08-19T23:48:56.796Z,18.87
2022-08-19T23:51:24.796Z,18.81
2022-08-19T23:53:51.789Z,18.79
2022-08-19T23:56:21.734Z,18.73
2022-08-19T23:58:49.269Z,18.73
